Time;durP1;ratioP1;P1;durP2;ratioP2;P2;SDS_P1;SDS_P2;PMS_P1;PMS_P2;Temp;Humidity;BMP_temperature;BMP_pressure;BME280_temperature;BME280_humidity;BME280_pressure;Samples;Min_cycle;Max_cycle;Signal;HPM_P1;HPM_P2
2022/11/07 00:01:52;;;;;;;14.53;13.17;;;;;;;5.22;100.00;96960.53;5022719;28;20689;-61
2022/11/07 00:04:20;;;;;;;18.00;14.70;;;;;;;5.24;100.00;96957.72;5018861;28;20647;-61
2022/11/07 00:06:49;;;;;;;16.60;15.07;;;;;;;5.22;100.00;96960.53;4974040;28;20587;-63
2022/11/07 00:09:18;;;;;;;16.37;14.77;;;;;;;5.21;100.00;96958.03;5020685;28;20401;-63
2022/11/07 00:11:47;;;;;;;15.37;13.87;;;;;;;5.26;100.00;96957.59;5022398;28;20207;-62
2022/11/07 00:14:16;;;;;;;16.27;14.60;;;;;;;5.27;100.00;96959.25;5017128;28;20558;-61
2022/11/07 00:16:46;;;;;;;16.87;15.07;;;;;;;5.20;100.00;96946.72;4992569;28;20674;-64
2022/11/07 00:19:16;;;;;;;15.43;13.83;;;;;;;5.25;100.00;96958.56;5021212;28;20456;-61
2022/11/07 00:21:45;;;;;;;15.93;14.37;;;;;;;5.16;100.00;96949.81;4981843;28;20293;-63
2022/11/07 00:24:13;;;;;;;14.87;13.47;;;;;;;5.18;100.00;96953.94;5016970;28;20771;-65
2022/11/07 00:26:44;;;;;;;14.70;13.17;;;;;;;5.06;100.00;96947.28;5020557;28;20745;-63
2022/11/07 00:29:13;;;;;;;14.70;13.20;;;;;;;5.02;100.00;96946.78;5021718;28;20694;-60
2022/11/07 00:31:41;;;;;;;16.37;14.70;;;;;;;4.90;100.00;96943.59;4993421;28;20209;-62
2022/11/07 00:34:09;;;;;;;15.60;14.00;;;;;;;4.81;100.00;96964.69;5020801;28;20229;-64
2022/11/07 00:36:38;;;;;;;16.20;14.50;;;;;;;4.73;100.00;96950.53;5020616;28;21820;-62
2022/11/07 00:39:06;;;;;;;16.17;14.70;;;;;;;4.66;100.00;96959.16;4967126;28;20234;-61
2022/11/07 00:41:35;;;;;;;14.80;13.43;;;;;;;4.59;100.00;96969.44;4962053;28;20715;-63
2022/11/07 00:44:04;;;;;;;15.20;12.97;;;;;;;4.54;100.00;96977.75;4992625;28;20623;-63
2022/11/07 00:46:33;;;;;;;15.90;14.23;;;;;;;4.52;100.00;96984.97;5020732;28;20552;-64
2022/11/07 00:49:01;;;;;;;16.07;14.57;;;;;;;4.41;100.00;96991.25;4994621;28;20487;-62
2022/11/07 00:51:29;;;;;;;14.30;12.93;;;;;;;4.35;100.00;96986.59;5020421;28;20206;-63
2022/11/07 00:53:57;;;;;;;15.90;14.23;;;;;;;4.33;100.00;96989.38;5022147;28;20205;-63
2022/11/07 00:56:26;;;;;;;16.23;14.63;;;;;;;4.34;100.00;96980.53;4968187;28;21822;-61
2022/11/07 00:58:55;;;;;;;15.90;14.30;;;;;;;4.28;100.00;96977.69;5020518;28;20227;-63
2022/11/07 01:01:26;;;;;;;15.63;14.13;;;;;;;4.33;100.00;96997.22;5019436;28;20564;-64
2022/11/07 01:06:43;;;;;;;14.63;13.33;;;;;;;4.30;100.00;97000.16;5023514;28;20268;-63
2022/11/07 01:09:13;;;;;;;16.60;14.90;;;;;;;4.26;100.00;97009.31;5016602;28;21065;-62
2022/11/07 01:11:42;;;;;;;14.33;12.93;;;;;;;4.22;100.00;97012.38;5011844;28;20199;-64
2022/11/07 01:14:13;;;;;;;15.50;14.00;;;;;;;4.20;100.00;97015.16;4985232;28;20222;-62
2022/11/07 01:16:43;;;;;;;15.23;13.80;;;;;;;4.21;100.00;97019.41;5022477;28;20207;-62
2022/11/07 01:19:12;;;;;;;15.17;13.67;;;;;;;4.19;100.00;97021.34;5018853;28;20222;-64
2022/11/07 01:21:41;;;;;;;15.23;13.73;;;;;;;4.23;100.00;97017.47;4995067;28;20619;-63
2022/11/07 01:24:11;;;;;;;14.40;13.03;;;;;;;4.28;100.00;97025.72;5019505;28;20207;-64
2022/11/07 01:26:41;;;;;;;14.77;13.17;;;;;;;4.35;100.00;97024.13;4986034;28;20818;-63
2022/11/07 01:29:10;;;;;;;16.07;13.50;;;;;;;4.41;100.00;97024.53;4984104;28;20222;-59
2022/11/07 01:31:38;;;;;;;14.37;13.07;;;;;;;4.41;100.00;97022.72;5021374;28;20215;-63
2022/11/07 01:34:08;;;;;;;14.20;12.70;;;;;;;4.40;100.00;97012.41;5018874;28;21932;-59
2022/11/07 01:36:37;;;;;;;13.60;12.30;;;;;;;4.35;100.00;97018.09;4998730;28;20980;-62
2022/11/07 01:39:06;;;;;;;14.23;12.87;;;;;;;4.41;100.00;97020.09;5023515;28;20218;-61
2022/11/07 01:41:36;;;;;;;14.30;12.90;;;;;;;4.48;100.00;97015.91;5022571;28;20231;-64
2022/11/07 01:44:43;;;;;;;13.53;12.30;;;;;;;4.59;100.00;97017.50;4971306;28;20215;-63
2022/11/07 01:47:12;;;;;;;13.13;11.83;;;;;;;4.62;100.00;97016.38;5021850;28;21514;-61
2022/11/07 01:49:43;;;;;;;13.03;11.93;;;;;;;4.63;100.00;97004.91;5026372;28;20789;-62
2022/11/07 01:52:13;;;;;;;12.93;11.73;;;;;;;4.71;100.00;97006.75;4994693;28;20728;-62
2022/11/07 01:54:46;;;;;;;13.00;11.83;;;;;;;4.72;100.00;97014.50;5025217;28;20760;-64
2022/11/07 01:57:18;;;;;;;11.97;10.87;;;;;;;4.77;100.00;97016.69;5022769;28;20559;-58
2022/11/07 01:59:46;;;;;;;12.13;10.97;;;;;;;4.83;100.00;97018.69;4973677;28;20234;-63
2022/11/07 02:02:15;;;;;;;12.23;10.77;;;;;;;4.90;100.00;97014.47;5023048;28;20215;-62
2022/11/07 02:04:45;;;;;;;12.70;11.53;;;;;;;4.98;100.00;97018.13;5023938;28;20206;-64
2022/11/07 02:07:17;;;;;;;12.63;11.43;;;;;;;5.03;100.00;97021.13;4984950;28;20491;-63
2022/11/07 02:09:46;;;;;;;11.37;10.37;;;;;;;5.07;100.00;97035.59;5011114;28;20229;-61
2022/11/07 02:12:15;;;;;;;12.73;11.63;;;;;;;5.07;100.00;97036.44;5024155;28;20205;-62
2022/11/07 02:14:43;;;;;;;12.50;11.33;;;;;;;5.09;100.00;97031.00;4970249;28;20236;-64
2022/11/07 02:17:12;;;;;;;13.10;11.90;;;;;;;5.10;100.00;97026.59;5020298;28;20203;-64
2022/11/07 02:19:44;;;;;;;12.43;11.33;;;;;;;5.14;100.00;97023.53;5023630;28;20342;-61
2022/11/07 02:22:19;;;;;;;12.67;11.47;;;;;;;5.20;100.00;97025.53;4995623;28;20233;-63
2022/11/07 02:24:51;;;;;;;12.03;10.93;;;;;;;5.23;100.00;97021.75;5023880;28;20315;-63
2022/11/07 02:27:20;;;;;;;11.73;10.67;;;;;;;5.32;100.00;97023.47;5022244;28;20237;-62
2022/11/07 02:29:52;;;;;;;12.10;11.00;;;;;;;5.31;100.00;97027.09;4973747;28;20233;-63
2022/11/07 02:32:21;;;;;;;12.17;11.03;;;;;;;5.26;100.00;97023.25;5020418;28;20264;-61
2022/11/07 02:34:56;;;;;;;12.37;11.20;;;;;;;5.27;100.00;97032.78;5023779;28;20214;-64
2022/11/07 02:37:28;;;;;;;12.63;11.50;;;;;;;5.22;100.00;97033.25;5002988;28;20234;-64
2022/11/07 02:39:59;;;;;;;12.47;11.27;;;;;;;5.29;100.00;97036.09;5026386;28;22302;-60
2022/11/07 02:42:42;;;;;;;12.00;10.80;;;;;;;5.26;100.00;97031.94;5004927;28;20727;-61
2022/11/07 02:45:12;;;;;;;11.87;10.77;;;;;;;5.26;100.00;97034.56;4969407;28;20683;-60
2022/11/07 02:47:41;;;;;;;12.67;11.47;;;;;;;5.24;100.00;97031.28;5020843;28;20558;-60
2022/11/07 02:50:11;;;;;;;13.23;11.90;;;;;;;5.28;100.00;97034.44;4942877;28;20767;-60
2022/11/07 02:52:39;;;;;;;14.60;11.50;;;;;;;5.26;100.00;97028.50;5005082;28;20199;-61
2022/11/07 02:55:10;;;;;;;11.60;10.63;;;;;;;5.29;100.00;97030.84;4993574;28;20203;-61
2022/11/07 02:57:39;;;;;;;12.07;10.90;;;;;;;5.34;100.00;97032.03;4991716;28;20203;-62
2022/11/07 03:00:09;;;;;;;11.30;10.30;;;;;;;5.34;100.00;97032.03;5022050;28;20219;-61
2022/11/07 03:02:38;;;;;;;11.57;10.53;;;;;;;5.32;100.00;97034.00;5022581;28;20482;-64
2022/11/07 03:05:07;;;;;;;11.33;10.23;;;;;;;5.35;100.00;97038.09;4975455;28;20507;-64
2022/11/07 03:07:36;;;;;;;11.97;10.97;;;;;;;5.39;100.00;97038.63;5022065;28;20464;-63
2022/11/07 03:10:06;;;;;;;11.30;10.13;;;;;;;5.45;100.00;97035.38;5022762;28;20223;-63
2022/11/07 03:12:35;;;;;;;12.03;11.00;;;;;;;5.44;100.00;97042.41;4966989;28;20210;-62
2022/11/07 03:15:05;;;;;;;11.50;10.60;;;;;;;5.38;100.00;97040.41;5022238;28;20400;-63
2022/11/07 03:17:33;;;;;;;10.93;10.03;;;;;;;5.39;100.00;97041.25;5018871;28;21183;-62
2022/11/07 03:20:02;;;;;;;11.27;10.27;;;;;;;5.39;100.00;97043.88;4972696;28;20447;-61
2022/11/07 03:22:31;;;;;;;10.30;9.20;;;;;;;5.37;100.00;97049.28;5019665;28;20496;-59
2022/11/07 03:24:59;;;;;;;12.00;10.83;;;;;;;5.44;100.00;97050.28;5021261;28;20305;-60
2022/11/07 03:27:27;;;;;;;11.23;10.23;;;;;;;5.44;100.00;97046.84;4997778;28;20273;-63
2022/11/07 03:29:57;;;;;;;11.40;10.40;;;;;;;5.50;100.00;97059.38;4993618;28;20950;-64
2022/11/07 03:32:25;;;;;;;10.63;9.83;;;;;;;5.53;100.00;97071.41;5019789;28;20257;-61
2022/11/07 03:34:54;;;;;;;11.10;10.20;;;;;;;5.50;100.00;97072.50;4975822;28;20222;-63
2022/11/07 03:37:22;;;;;;;11.40;10.43;;;;;;;5.55;100.00;97070.25;5022137;28;20212;-62
2022/11/07 03:39:50;;;;;;;10.87;9.97;;;;;;;5.54;100.00;97065.97;5023095;28;21086;-59
2022/11/07 03:42:19;;;;;;;11.13;10.23;;;;;;;5.55;100.00;97066.81;5001235;28;20221;-63
2022/11/07 03:44:47;;;;;;;11.50;10.47;;;;;;;5.45;100.00;97062.44;4986387;28;20214;-63
2022/11/07 03:47:17;;;;;;;10.67;9.77;;;;;;;5.64;100.00;97073.75;5020844;28;20398;-61
2022/11/07 03:49:45;;;;;;;10.33;9.53;;;;;;;5.56;100.00;97071.09;5023611;28;20601;-61
2022/11/07 03:52:14;;;;;;;11.03;9.93;;;;;;;5.58;100.00;97079.63;4968843;28;20843;-63
2022/11/07 03:54:42;;;;;;;10.37;9.37;;;;;;;5.52;100.00;97082.88;5022595;28;20199;-61
2022/11/07 03:57:11;;;;;;;11.93;10.93;;;;;;;5.56;100.00;97089.47;5012010;28;20375;-63
2022/11/07 03:59:39;;;;;;;11.20;10.20;;;;;;;5.52;100.00;97109.97;4946967;28;21199;-60
2022/11/07 04:02:08;;;;;;;11.43;10.50;;;;;;;5.61;100.00;97108.25;5019772;28;20442;-61
2022/11/07 04:04:38;;;;;;;10.13;9.30;;;;;;;5.65;100.00;97113.00;5021186;28;20318;-61
2022/11/07 04:07:07;;;;;;;10.53;9.53;;;;;;;5.69;100.00;97103.03;4941357;28;20773;-64
2022/11/07 04:09:35;;;;;;;10.60;9.70;;;;;;;5.61;100.00;97111.69;5019464;28;21348;-63
2022/11/07 04:17:34;;;;;;;10.47;9.57;;;;;;;5.63;100.00;97106.28;4990258;28;20206;-61
2022/11/07 04:20:04;;;;;;;10.27;9.43;;;;;;;5.64;100.00;97105.31;5019388;28;21541;-61
2022/11/07 04:22:33;;;;;;;10.53;9.63;;;;;;;5.65;100.00;97101.69;4972802;28;20243;-63
2022/11/07 04:25:02;;;;;;;9.93;8.93;;;;;;;5.61;100.00;97111.69;5015998;28;20517;-64
2022/11/07 04:27:41;;;;;;;10.60;9.70;;;;;;;5.69;100.00;97112.72;5021168;28;20726;-63
2022/11/07 04:30:23;;;;;;;10.40;9.50;;;;;;;5.71;100.00;97105.50;4992051;28;20430;-64
2022/11/07 04:32:52;;;;;;;10.07;9.27;;;;;;;5.66;100.00;97100.72;5019367;28;20199;-63
2022/11/07 04:35:23;;;;;;;9.13;8.43;;;;;;;5.55;100.00;97095.72;5020096;28;20213;-60
2022/11/07 04:37:52;;;;;;;9.53;8.63;;;;;;;5.53;100.00;97093.22;4938540;28;21498;-64
2022/11/07 04:40:21;;;;;;;9.30;8.50;;;;;;;5.43;100.00;97097.78;5016538;28;20226;-61
2022/11/07 04:42:50;;;;;;;9.17;8.33;;;;;;;5.31;100.00;97103.28;5017832;28;20222;-59
2022/11/07 04:45:18;;;;;;;9.17;8.47;;;;;;;5.16;100.00;97092.47;4994570;28;20867;-64
2022/11/07 04:47:47;;;;;;;8.87;7.97;;;;;;;5.11;100.00;97099.16;5017893;28;20210;-63
2022/11/07 04:50:17;;;;;;;7.97;7.37;;;;;;;5.14;100.00;97097.06;5021960;28;20226;-64
2022/11/07 04:52:47;;;;;;;8.33;7.63;;;;;;;5.14;100.00;97102.31;4952993;28;20206;-63
2022/11/07 04:55:22;;;;;;;9.30;8.50;;;;;;;5.20;100.00;97099.09;4962442;28;21355;-61
2022/11/07 04:57:51;;;;;;;8.43;7.73;;;;;;;5.24;100.00;97102.22;5018827;28;20388;-65
2022/11/07 05:00:20;;;;;;;8.77;7.90;;;;;;;5.22;100.00;97102.38;4998736;28;20876;-62
2022/11/07 05:02:49;;;;;;;8.47;7.67;;;;;;;5.28;100.00;97111.44;5021491;28;20230;-64
2022/11/07 05:05:18;;;;;;;8.80;8.10;;;;;;;5.28;100.00;97111.44;5018065;28;21009;-63
2022/11/07 05:07:48;;;;;;;8.63;7.83;;;;;;;5.24;100.00;97115.34;5023110;28;20198;-63
2022/11/07 05:10:21;;;;;;;8.53;7.77;;;;;;;5.20;100.00;97121.88;4965604;28;20300;-63
2022/11/07 05:12:49;;;;;;;7.93;7.33;;;;;;;5.26;100.00;97133.59;5011589;28;21175;-62
2022/11/07 05:15:18;;;;;;;8.23;7.50;;;;;;;5.29;100.00;97138.53;5023768;28;20819;-62
2022/11/07 05:17:46;;;;;;;10.50;9.60;;;;;;;5.31;100.00;97133.97;5028190;28;20215;-63
2022/11/07 05:20:27;;;;;;;9.63;8.83;;;;;;;5.29;100.00;97128.03;5026081;28;20834;-65
2022/11/07 05:23:13;;;;;;;10.20;9.23;;;;;;;5.31;100.00;97131.34;5028001;28;20222;-62
2022/11/07 05:25:44;;;;;;;10.10;9.20;;;;;;;5.26;100.00;97125.72;5024586;28;20454;-62
2022/11/07 05:28:13;;;;;;;10.03;9.03;;;;;;;5.27;100.00;97135.25;4975055;28;20831;-64
2022/11/07 05:30:42;;;;;;;9.80;9.00;;;;;;;5.22;100.00;97131.28;5023823;28;21198;-64
2022/11/07 05:33:11;;;;;;;10.27;9.47;;;;;;;5.32;100.00;97140.88;5024010;28;20202;-62
2022/11/07 05:35:40;;;;;;;11.03;10.03;;;;;;;5.34;100.00;97147.63;5025103;28;20221;-64
2022/11/07 05:38:10;;;;;;;10.93;9.93;;;;;;;5.31;100.00;97145.31;5024250;28;20535;-61
2022/11/07 05:40:39;;;;;;;10.23;9.43;;;;;;;5.31;100.00;97140.06;5021261;28;20415;-60
2022/11/07 05:43:09;;;;;;;10.97;9.97;;;;;;;5.40;100.00;97134.88;4973670;28;20225;-62
2022/11/07 05:45:37;;;;;;;10.43;9.37;;;;;;;5.43;100.00;97147.69;5023321;28;20206;-62
2022/11/07 05:48:07;;;;;;;10.27;9.33;;;;;;;5.44;100.00;97139.63;5025908;28;20221;-64
2022/11/07 05:50:36;;;;;;;12.23;10.23;;;;;;;5.49;100.00;97139.19;5020534;28;20238;-60
2022/11/07 05:53:05;;;;;;;9.77;8.97;;;;;;;5.47;100.00;97136.72;5024670;28;20218;-62
2022/11/07 05:55:34;;;;;;;10.87;9.03;;;;;;;5.42;100.00;97141.59;5021664;28;20195;-62
2022/11/07 05:58:08;;;;;;;10.00;9.07;;;;;;;5.42;100.00;97143.41;4970189;28;21174;-61
2022/11/07 06:00:36;;;;;;;10.13;9.23;;;;;;;5.37;100.00;97149.13;4992164;28;20764;-61
2022/11/07 06:03:04;;;;;;;9.93;9.10;;;;;;;5.36;100.00;97147.47;5023920;28;20752;-62
2022/11/07 06:05:33;;;;;;;9.80;9.07;;;;;;;5.27;100.00;97143.94;5022466;28;21555;-61
2022/11/07 06:08:01;;;;;;;10.07;9.23;;;;;;;5.20;100.00;97146.38;5024057;28;20203;-62
2022/11/07 06:10:29;;;;;;;11.03;10.03;;;;;;;5.16;100.00;97158.16;5020495;28;20400;-62
2022/11/07 06:12:59;;;;;;;10.47;9.57;;;;;;;4.99;100.00;97132.69;4973035;28;20222;-62
2022/11/07 06:15:29;;;;;;;10.57;9.67;;;;;;;4.91;100.00;97143.94;5020000;28;21749;-61
2022/11/07 06:17:59;;;;;;;10.40;9.40;;;;;;;4.83;100.00;97138.59;5023878;28;20199;-63
2022/11/07 06:20:27;;;;;;;10.10;9.30;;;;;;;4.76;100.00;97133.97;5019259;28;20307;-61
2022/11/07 06:22:57;;;;;;;10.57;9.67;;;;;;;4.68;100.00;97149.63;5017614;28;20223;-61
2022/11/07 06:25:26;;;;;;;11.47;10.37;;;;;;;4.67;100.00;97160.25;5021116;28;20448;-58
2022/11/07 06:27:58;;;;;;;10.23;9.23;;;;;;;4.64;100.00;97162.22;4990606;28;20213;-59
2022/11/07 06:30:28;;;;;;;10.60;9.70;;;;;;;4.60;100.00;97162.66;5021378;28;20206;-63
2022/11/07 06:32:56;;;;;;;9.90;9.10;;;;;;;4.49;100.00;97161.88;5025094;28;20205;-62
2022/11/07 06:35:24;;;;;;;10.37;9.40;;;;;;;4.46;100.00;97169.22;5021051;28;20206;-62
2022/11/07 06:37:53;;;;;;;10.03;9.20;;;;;;;4.46;100.00;97169.22;4988004;28;20425;-62
2022/11/07 06:40:21;;;;;;;10.63;9.73;;;;;;;4.47;100.00;97169.06;5021987;28;20231;-60
2022/11/07 06:42:51;;;;;;;10.17;9.27;;;;;;;4.53;100.00;97165.03;5016759;28;20466;-62
2022/11/07 06:45:20;;;;;;;11.23;10.13;;;;;;;4.59;100.00;97167.06;4987908;28;20441;-63
2022/11/07 06:47:50;;;;;;;10.90;9.77;;;;;;;4.63;100.00;97165.00;4992109;28;20219;-62
2022/11/07 06:50:18;;;;;;;11.33;10.33;;;;;;;4.65;100.00;97184.03;5019759;28;20923;-60
2022/11/07 06:52:46;;;;;;;11.50;10.30;;;;;;;4.73;100.00;97191.16;4989137;28;20541;-62
2022/11/07 06:55:15;;;;;;;10.50;9.50;;;;;;;4.80;100.00;97181.75;5020128;28;20708;-61
2022/11/07 06:57:44;;;;;;;9.67;8.80;;;;;;;4.94;100.00;97201.44;5024337;28;20217;-60
2022/11/07 07:00:13;;;;;;;10.63;9.70;;;;;;;5.06;100.00;97207.28;4937110;28;21010;-63
2022/11/07 07:02:41;;;;;;;10.67;9.67;;;;;;;5.19;100.00;97204.28;4965387;28;20229;-60
2022/11/07 07:05:27;;;;;;;10.50;9.53;;;;;;;5.27;100.00;97214.06;5018151;28;20557;-61
2022/11/07 07:07:56;;;;;;;11.50;10.40;;;;;;;5.36;100.00;97205.28;5020142;28;20203;-63
2022/11/07 07:10:24;;;;;;;11.70;10.60;;;;;;;5.43;100.00;97206.31;5019417;28;20214;-63
2022/11/07 07:12:53;;;;;;;11.17;10.17;;;;;;;5.47;100.00;97209.47;5023484;28;20263;-60
2022/11/07 07:15:21;;;;;;;10.97;9.87;;;;;;;5.49;100.00;97202.28;5016933;28;20450;-62
2022/11/07 07:17:50;;;;;;;10.50;9.47;;;;;;;5.54;100.00;97207.88;5022024;28;21231;-61
2022/11/07 07:20:18;;;;;;;10.17;9.17;;;;;;;5.61;100.00;97216.00;4963416;28;20222;-60
2022/11/07 07:22:47;;;;;;;10.63;9.73;;;;;;;5.70;100.00;97212.47;5021132;28;20815;-62
2022/11/07 07:25:23;;;;;;;9.90;9.00;;;;;;;5.80;100.00;97205.31;5021845;28;20210;-62
2022/11/07 07:27:52;;;;;;;9.10;8.17;;;;;;;5.85;100.00;97207.47;5022037;28;20640;-59
2022/11/07 07:30:20;;;;;;;9.80;8.90;;;;;;;5.94;100.00;97208.38;5019288;28;20363;-63
2022/11/07 07:32:49;;;;;;;10.00;9.20;;;;;;;5.88;100.00;97209.81;5022175;28;20256;-62
2022/11/07 07:35:17;;;;;;;9.47;8.67;;;;;;;5.90;100.00;97209.66;4968356;28;20730;-60
2022/11/07 07:37:51;;;;;;;9.67;8.87;;;;;;;5.96;100.00;97221.34;5020248;28;20797;-63
2022/11/07 07:40:20;;;;;;;9.20;8.43;;;;;;;6.00;100.00;97212.16;5020333;28;20292;-60
2022/11/07 07:42:48;;;;;;;9.80;8.80;;;;;;;6.06;100.00;97201.91;5021161;28;20210;-65
2022/11/07 07:45:17;;;;;;;9.60;8.80;;;;;;;6.10;100.00;97206.84;5019655;28;20221;-63
2022/11/07 07:47:45;;;;;;;8.83;8.03;;;;;;;6.06;100.00;97214.22;5024490;28;20206;-64
2022/11/07 07:50:14;;;;;;;9.53;8.63;;;;;;;6.06;100.00;97224.72;4973766;28;20443;-64
2022/11/07 07:52:42;;;;;;;9.07;8.37;;;;;;;6.12;100.00;97224.13;5020444;28;20440;-61
2022/11/07 07:55:12;;;;;;;8.90;8.20;;;;;;;6.17;100.00;97210.50;4988907;28;21114;-60
2022/11/07 07:57:41;;;;;;;9.63;8.90;;;;;;;6.35;100.00;97210.44;5020079;28;20794;-61
2022/11/07 08:00:11;;;;;;;9.63;8.93;;;;;;;6.44;100.00;97214.78;5017788;28;20474;-61
2022/11/07 08:02:42;;;;;;;9.83;9.03;;;;;;;6.61;100.00;97215.66;5023154;28;20214;-61
2022/11/07 08:05:11;;;;;;;9.30;8.60;;;;;;;6.83;100.00;97200.28;5018542;28;20435;-61
2022/11/07 08:07:46;;;;;;;8.73;8.03;;;;;;;7.00;100.00;97205.59;4973587;28;20306;-63
2022/11/07 08:10:17;;;;;;;9.10;8.30;;;;;;;7.09;100.00;97204.66;5018887;28;20218;-59
2022/11/07 08:13:05;;;;;;;8.87;8.13;;;;;;;7.14;100.00;97206.78;5018578;28;20440;-62
2022/11/07 08:15:34;;;;;;;8.60;7.90;;;;;;;7.18;100.00;97206.31;5022011;28;20482;-60
2022/11/07 08:18:02;;;;;;;8.67;7.87;;;;;;;7.10;100.00;97207.09;5019231;28;21673;-62
2022/11/07 08:20:30;;;;;;;7.93;7.30;;;;;;;7.02;100.00;97209.72;4980761;28;20707;-62
2022/11/07 08:23:02;;;;;;;8.57;7.87;;;;;;;7.15;100.00;97211.06;4967978;28;20226;-63
2022/11/07 08:25:32;;;;;;;8.33;7.57;;;;;;;7.34;100.00;97215.22;4985932;28;20234;-61
2022/11/07 08:28:00;;;;;;;8.87;7.97;;;;;;;7.39;100.00;97200.56;5017760;28;20202;-62
2022/11/07 08:30:30;;;;;;;8.23;7.53;;;;;;;7.34;100.00;97205.50;5014489;28;20675;-63
2022/11/07 08:33:00;;;;;;;8.50;7.73;;;;;;;7.35;100.00;97216.88;5011679;28;20202;-64
2022/11/07 08:35:28;;;;;;;7.63;7.00;;;;;;;7.61;100.00;97206.19;5018031;28;20214;-63
2022/11/07 08:37:56;;;;;;;8.90;7.90;;;;;;;7.72;100.00;97198.94;4986408;28;20226;-63
2022/11/07 08:40:24;;;;;;;8.60;7.90;;;;;;;7.77;100.00;97213.28;5022082;28;20218;-63
2022/11/07 08:42:59;;;;;;;8.03;7.43;;;;;;;7.77;100.00;97221.19;5022620;28;20209;-65
2022/11/07 08:45:27;;;;;;;7.37;6.77;;;;;;;7.85;100.00;97215.06;5018689;28;20230;-64
2022/11/07 08:47:59;;;;;;;7.53;6.97;;;;;;;8.00;100.00;97217.06;5024440;28;20202;-65
2022/11/07 08:50:27;;;;;;;7.37;6.67;;;;;;;8.21;100.00;97211.25;5023878;28;20209;-65
2022/11/07 08:52:58;;;;;;;7.10;6.50;;;;;;;8.26;100.00;97214.22;4990754;28;20315;-63
2022/11/07 08:55:30;;;;;;;6.60;6.10;;;;;;;8.24;100.00;97211.72;5020986;28;20199;-63
2022/11/07 08:58:00;;;;;;;6.17;5.77;;;;;;;8.37;100.00;97207.75;5027910;28;20208;-63
2022/11/07 09:00:29;;;;;;;5.47;5.03;;;;;;;8.65;100.00;97207.34;5025279;28;20225;-63
2022/11/07 09:03:01;;;;;;;4.60;4.30;;;;;;;8.84;100.00;97211.38;5026913;28;20206;-63
2022/11/07 09:05:49;;;;;;;5.87;5.43;;;;;;;9.18;100.00;97204.13;5026160;28;23180;-62
2022/11/07 09:08:18;;;;;;;5.13;4.73;;;;;;;10.38;100.00;97196.50;5011347;28;20206;-63
2022/11/07 09:10:47;;;;;;;5.80;5.10;;;;;;;11.21;100.00;97190.22;4940469;28;20641;-61
2022/11/07 09:13:16;;;;;;;5.00;4.60;;;;;;;10.68;95.36;97186.75;5023035;28;20213;-62
2022/11/07 09:15:45;;;;;;;5.00;4.53;;;;;;;10.35;97.32;97188.94;5023215;28;20202;-61
2022/11/07 09:18:18;;;;;;;5.70;5.00;;;;;;;10.20;99.05;97191.56;5010326;28;20202;-63
2022/11/07 09:20:47;;;;;;;4.23;4.03;;;;;;;10.05;100.00;97197.69;5021929;28;20289;-63
2022/11/07 09:23:15;;;;;;;4.67;4.37;;;;;;;9.89;100.00;97187.22;4998107;28;20217;-59
2022/11/07 09:25:44;;;;;;;4.83;4.53;;;;;;;9.83;100.00;97184.31;4974158;28;20227;-63
2022/11/07 09:28:12;;;;;;;4.87;4.47;;;;;;;9.85;100.00;97192.09;5022200;28;20757;-62
2022/11/07 09:30:42;;;;;;;4.30;4.00;;;;;;;10.02;100.00;97202.50;5023561;28;20999;-62
2022/11/07 09:33:10;;;;;;;4.40;4.10;;;;;;;10.08;100.00;97194.66;5022516;28;20295;-62
2022/11/07 09:35:39;;;;;;;4.50;4.20;;;;;;;10.03;100.00;97194.38;5022347;28;20489;-63
2022/11/07 09:38:07;;;;;;;6.37;4.67;;;;;;;9.97;100.00;97197.75;5021668;28;22411;-60
2022/11/07 09:40:42;;;;;;;4.50;4.20;;;;;;;10.23;100.00;97192.03;4991130;28;20710;-63
2022/11/07 09:43:28;;;;;;;5.30;4.37;;;;;;;10.18;100.00;97197.03;4997464;28;20469;-61
2022/11/07 09:46:03;;;;;;;4.93;4.53;;;;;;;10.33;100.00;97186.47;5021950;28;20214;-62
2022/11/07 09:48:38;;;;;;;4.60;4.30;;;;;;;10.31;100.00;97185.81;5023471;28;20214;-62
2022/11/07 09:51:13;;;;;;;5.10;4.70;;;;;;;10.39;99.34;97180.44;5022812;28;21185;-60
2022/11/07 09:53:43;;;;;;;5.13;4.60;;;;;;;10.41;100.00;97182.94;5023598;28;20277;-63
2022/11/07 09:56:12;;;;;;;4.53;4.23;;;;;;;10.49;100.00;97187.31;4948152;28;20559;-62
2022/11/07 09:58:42;;;;;;;4.97;4.67;;;;;;;10.46;98.54;97179.75;5022401;28;20670;-63
2022/11/07 10:01:14;;;;;;;4.83;4.33;;;;;;;10.53;100.00;97181.47;5023370;28;20514;-62
2022/11/07 10:03:43;;;;;;;4.70;4.40;;;;;;;10.52;100.00;97179.81;5025651;28;20233;-63
2022/11/07 10:06:34;;;;;;;4.80;4.50;;;;;;;10.69;98.27;97184.94;5025522;28;20199;-62
2022/11/07 10:09:10;;;;;;;4.43;4.13;;;;;;;10.46;97.85;97180.56;5020388;28;20576;-62
2022/11/07 10:11:41;;;;;;;4.00;3.70;;;;;;;10.56;99.72;97174.97;4981637;28;20217;-64
2022/11/07 10:14:17;;;;;;;4.50;4.20;;;;;;;10.65;98.18;97188.97;4996976;28;20231;-65
2022/11/07 10:17:02;;;;;;;4.30;4.00;;;;;;;10.53;96.96;97181.47;4993440;28;20287;-62
2022/11/07 10:19:46;;;;;;;4.57;4.27;;;;;;;10.44;99.44;97193.16;5023005;28;20230;-62
2022/11/07 10:22:36;;;;;;;4.33;3.83;;;;;;;10.55;99.96;97192.69;4997549;28;21254;-65
2022/11/07 10:25:20;;;;;;;4.27;3.97;;;;;;;10.54;100.00;97193.69;5021152;28;20871;-62
2022/11/07 10:27:52;;;;;;;4.50;4.10;;;;;;;10.44;99.99;97189.72;4956968;28;20218;-67
2022/11/07 10:30:21;;;;;;;4.37;4.07;;;;;;;10.33;100.00;97197.06;5018284;28;20231;-62
2022/11/07 10:32:58;;;;;;;4.67;4.27;;;;;;;10.58;100.00;97191.53;5023456;28;20201;-62
2022/11/07 10:35:29;;;;;;;4.37;3.97;;;;;;;10.81;100.00;97190.59;5018530;28;20207;-63
2022/11/07 10:37:59;;;;;;;5.10;4.70;;;;;;;11.08;98.19;97180.28;5005189;28;22847;-62
2022/11/07 10:40:32;;;;;;;5.37;4.70;;;;;;;11.35;95.36;97185.88;5018329;28;20578;-64
2022/11/07 10:43:07;;;;;;;4.37;4.03;;;;;;;11.39;94.53;97179.16;4989562;28;20211;-64
2022/11/07 10:45:37;;;;;;;4.97;4.57;;;;;;;11.21;95.02;97180.44;4993648;28;20230;-62
2022/11/07 10:48:07;;;;;;;5.37;4.97;;;;;;;11.13;96.25;97175.22;5020965;28;20207;-63
2022/11/07 10:50:35;;;;;;;5.10;4.70;;;;;;;11.05;96.74;97172.69;5019957;28;20219;-63
2022/11/07 10:53:08;;;;;;;5.00;4.70;;;;;;;11.25;96.30;97175.56;4994674;28;21440;-62
2022/11/07 10:55:44;;;;;;;5.00;4.60;;;;;;;11.08;95.89;97165.22;5019569;28;20538;-63
2022/11/07 10:58:18;;;;;;;4.53;4.23;;;;;;;11.34;95.80;97176.28;4964450;28;20839;-64
2022/11/07 11:00:57;;;;;;;4.60;4.37;;;;;;;11.72;95.53;97173.34;4991306;28;20836;-63
2022/11/07 11:03:30;;;;;;;5.77;4.63;;;;;;;11.53;93.05;97170.31;5022797;28;20335;-64
2022/11/07 11:06:19;;;;;;;5.73;5.23;;;;;;;11.63;92.43;97179.81;5024431;28;20264;-64
2022/11/07 11:08:49;;;;;;;4.77;4.27;;;;;;;11.70;93.20;97170.88;4988455;28;20242;-62
2022/11/07 11:11:26;;;;;;;5.10;4.70;;;;;;;11.56;92.31;97167.31;5020755;28;20362;-62
2022/11/07 11:14:02;;;;;;;4.63;4.27;;;;;;;11.49;93.54;97169.06;4942433;28;25190;-63
2022/11/07 11:16:33;;;;;;;5.73;4.90;;;;;;;11.58;93.73;97162.63;5021379;28;20506;-64
2022/11/07 11:19:03;;;;;;;4.27;4.07;;;;;;;11.76;93.94;97171.94;4967858;28;20229;-63
2022/11/07 11:21:42;;;;;;;4.40;4.10;;;;;;;11.71;91.84;97161.91;5021372;28;20205;-61
2022/11/07 11:24:23;;;;;;;3.93;3.57;;;;;;;11.71;91.67;97159.25;4986200;28;20225;-63
2022/11/07 11:26:52;;;;;;;4.80;4.40;;;;;;;11.58;93.67;97153.84;5019472;28;20324;-61
2022/11/07 11:29:27;;;;;;;4.23;4.03;;;;;;;11.49;94.62;97161.09;5019485;28;20420;-63
2022/11/07 11:31:57;;;;;;;4.40;4.00;;;;;;;11.62;95.32;97162.25;4992641;28;20215;-60
2022/11/07 11:34:34;;;;;;;4.57;4.10;;;;;;;11.61;95.04;97158.75;4968270;28;20870;-59
2022/11/07 11:37:06;;;;;;;4.90;4.50;;;;;;;11.43;95.33;97154.75;5016768;28;20198;-62
2022/11/07 11:39:39;;;;;;;4.90;4.60;;;;;;;11.61;95.60;97139.38;5021844;28;22056;-60
2022/11/07 11:42:13;;;;;;;5.40;4.40;;;;;;;11.79;95.66;97141.56;5021581;28;22917;-62
2022/11/07 11:44:43;;;;;;;5.77;3.73;;;;;;;12.13;93.93;97143.44;5022153;28;20203;-61
2022/11/07 11:47:14;;;;;;;4.63;4.30;;;;;;;12.64;90.83;97136.13;4994847;28;20789;-61
2022/11/07 11:49:48;;;;;;;4.40;4.10;;;;;;;12.56;89.51;97129.19;4971860;28;20267;-64
2022/11/07 11:52:17;;;;;;;4.13;3.93;;;;;;;12.07;90.87;97130.97;5019769;28;20222;-63